Time;durP1;ratioP1;P1;durP2;ratioP2;P2;SDS_P1;SDS_P2;PMS_P1;PMS_P2;Temp;Humidity;BMP_temperature;BMP_pressure;BME280_temperature;BME280_humidity;BME280_pressure;Samples;Min_cycle;Max_cycle;Signal;HPM_P1;HPM_P2
2023/04/02 00:01:39;;;;;;;6.30;3.45;;;;;;;;;;10363004;28;20504;-60
2023/04/02 00:06:43;;;;;;;9.55;4.05;;;;;;;;;;10360011;28;20034;-60
2023/04/02 00:11:47;;;;;;;6.50;3.55;;;;;;;;;;10367337;28;20025;-59
2023/04/02 00:16:49;;;;;;;7.47;3.78;;;;;;;;;;10365308;28;20113;-60
2023/04/02 00:21:50;;;;;;;5.53;3.55;;;;;;;;;;10358744;28;20052;-61
2023/04/02 00:26:54;;;;;;;7.70;3.80;;;;;;;;;;10345836;28;20060;-61
2023/04/02 00:31:57;;;;;;;4.78;3.20;;;;;;;;;;10352727;28;20471;-61
2023/04/02 00:36:58;;;;;;;6.32;3.05;;;;;;;;;;10352858;28;20534;-60
2023/04/02 00:42:05;;;;;;;11.35;3.38;;;;;;;;;;10365125;28;20339;-60
2023/04/02 00:47:21;;;;;;;5.18;3.22;;;;;;;;;;10360881;28;20029;-60
2023/04/02 00:52:27;;;;;;;11.30;3.03;;;;;;;;;;10361758;28;20037;-61
2023/04/02 00:57:29;;;;;;;10.38;3.47;;;;;;;;;;10377012;28;20068;-62
2023/04/02 01:02:33;;;;;;;5.07;3.10;;;;;;;;;;10350153;28;20046;-61
2023/04/02 01:08:13;;;;;;;7.13;3.72;;;;;;;;;;10361230;28;20029;-61
2023/04/02 01:13:42;;;;;;;5.20;3.03;;;;;;;;;;10363938;28;20042;-61
2023/04/02 01:19:17;;;;;;;4.93;2.83;;;;;;;;;;10381481;28;20164;-61
2023/04/02 01:24:19;;;;;;;4.47;3.00;;;;;;;;;;10367232;28;20049;-60
2023/04/02 01:29:38;;;;;;;4.70;3.03;;;;;;;;;;10359457;28;20030;-60
2023/04/02 01:34:40;;;;;;;3.75;3.03;;;;;;;;;;10356861;28;20106;-60
2023/04/02 01:40:02;;;;;;;6.05;3.10;;;;;;;;;;10362158;28;20457;-62
2023/04/02 01:45:12;;;;;;;8.73;3.33;;;;;;;;;;10374557;28;20095;-60
2023/04/02 01:50:18;;;;;;;5.28;3.17;;;;;;;;;;10357386;28;20026;-61
2023/04/02 01:55:37;;;;;;;4.82;3.00;;;;;;;;;;10373720;28;20048;-61
2023/04/02 02:00:50;;;;;;;;;;;;;;;;;;10379478;28;20037;-61
2023/04/02 02:05:51;;;;;;;4.40;2.67;;;;;;;;;;10391120;28;20191;-61
2023/04/02 02:10:52;;;;;;;4.88;3.13;;;;;;;;;;10393905;28;20041;-61
2023/04/02 02:15:58;;;;;;;4.15;2.78;;;;;;;;;;10375640;28;20033;-61
2023/04/02 02:21:03;;;;;;;5.50;3.20;;;;;;;;;;10372096;28;20038;-61
2023/04/02 02:26:05;;;;;;;8.40;3.00;;;;;;;;;;10374257;28;20026;-62
2023/04/02 02:31:18;;;;;;;3.15;2.80;;;;;;;;;;10388772;28;20034;-62
2023/04/02 02:36:32;;;;;;;3.53;2.33;;;;;;;;;;10401594;28;20026;-61
2023/04/02 02:41:43;;;;;;;5.32;2.88;;;;;;;;;;10369706;28;20105;-62
2023/04/02 02:47:07;;;;;;;6.15;2.42;;;;;;;;;;10393199;28;20033;-61
2023/04/02 02:52:08;;;;;;;3.00;2.60;;;;;;;;;;10376683;28;20034;-60
2023/04/02 02:57:14;;;;;;;6.28;2.53;;;;;;;;;;10383019;28;20042;-60
2023/04/02 03:02:16;;;;;;;5.95;3.25;;;;;;;;;;10390857;28;20041;-60
2023/04/02 03:07:24;;;;;;;3.30;2.72;;;;;;;;;;10383252;28;20041;-61
2023/04/02 03:12:56;;;;;;;5.03;2.53;;;;;;;;;;10388641;28;20029;-61
2023/04/02 03:18:21;;;;;;;8.05;3.00;;;;;;;;;;10371393;28;20029;-62
2023/04/02 03:24:19;;;;;;;3.30;2.55;;;;;;;;;;10386216;28;20050;-61
2023/04/02 03:29:32;;;;;;;4.15;2.47;;;;;;;;;;10386069;28;20095;-60
2023/04/02 03:34:41;;;;;;;6.50;2.83;;;;;;;;;;10368260;28;20490;-61
2023/04/02 03:40:00;;;;;;;3.55;2.78;;;;;;;;;;10367656;28;20061;-62
2023/04/02 03:45:27;;;;;;;3.55;2.45;;;;;;;;;;10398476;28;20038;-61
2023/04/02 03:50:33;;;;;;;10.95;3.38;;;;;;;;;;10373413;28;20116;-59
2023/04/02 03:55:39;;;;;;;2.83;2.25;;;;;;;;;;10368888;28;20034;-59
2023/04/02 04:01:02;;;;;;;3.00;2.15;;;;;;;;;;10372361;28;20038;-59
2023/04/02 04:06:19;;;;;;;2.20;1.83;;;;;;;;;;10379209;28;20030;-60
2023/04/02 04:11:29;;;;;;;3.88;2.30;;;;;;;;;;10365142;28;20026;-59
2023/04/02 04:16:40;;;;;;;3.50;2.67;;;;;;;;;;10388764;28;20076;-60
2023/04/02 04:21:43;;;;;;;4.00;2.30;;;;;;;;;;10388110;28;20035;-60
2023/04/02 04:27:12;;;;;;;5.25;2.40;;;;;;;;;;10393816;28;20358;-61
2023/04/02 04:32:49;;;;;;;3.15;2.38;;;;;;;;;;10405298;28;20370;-61
2023/04/02 04:38:15;;;;;;;3.13;1.92;;;;;;;;;;10370336;28;20044;-61
2023/04/02 04:43:36;;;;;;;3.25;2.00;;;;;;;;;;10361952;28;20108;-61
2023/04/02 04:49:11;;;;;;;2.97;2.28;;;;;;;;;;10374026;28;20449;-61
2023/04/02 04:54:14;;;;;;;6.65;2.72;;;;;;;;;;10354173;28;20125;-61
2023/04/02 04:59:31;;;;;;;10.15;2.40;;;;;;;;;;10379882;28;20033;-60
2023/04/02 05:04:36;;;;;;;3.13;2.15;;;;;;;;;;10365419;28;20021;-61
2023/04/02 05:10:14;;;;;;;2.53;2.10;;;;;;;;;;10368005;28;20061;-61
2023/04/02 05:15:28;;;;;;;3.00;1.90;;;;;;;;;;10365116;28;20305;-60
2023/04/02 05:20:35;;;;;;;2.55;2.22;;;;;;;;;;10360710;28;20452;-61
2023/04/02 05:25:48;;;;;;;2.30;2.10;;;;;;;;;;10376742;28;20396;-62
2023/04/02 05:31:00;;;;;;;2.35;1.73;;;;;;;;;;10367308;28;20474;-60
2023/04/02 05:36:10;;;;;;;3.00;2.03;;;;;;;;;;10379303;28;20157;-60
2023/04/02 05:41:30;;;;;;;2.28;1.80;;;;;;;;;;10367042;28;20108;-59
2023/04/02 05:46:36;;;;;;;2.13;1.90;;;;;;;;;;10388175;28;20109;-61
2023/04/02 05:51:48;;;;;;;2.67;1.98;;;;;;;;;;10380564;28;20504;-60
2023/04/02 05:56:56;;;;;;;2.53;2.22;;;;;;;;;;10379428;28;20121;-60
2023/04/02 06:02:30;;;;;;;1.75;1.65;;;;;;;;;;10379665;28;20053;-61
2023/04/02 06:07:45;;;;;;;11.38;2.20;;;;;;;;;;10372536;28;20030;-62
2023/04/02 06:13:02;;;;;;;2.83;2.20;;;;;;;;;;10379364;28;20018;-62
2023/04/02 06:18:26;;;;;;;6.40;2.10;;;;;;;;;;10363471;28;20091;-62
2023/04/02 06:23:55;;;;;;;3.45;2.30;;;;;;;;;;10372104;28;20036;-63
2023/04/02 06:29:15;;;;;;;3.20;1.85;;;;;;;;;;10375932;28;20541;-62
2023/04/02 06:34:28;;;;;;;5.57;1.90;;;;;;;;;;10371138;28;20026;-63
2023/04/02 06:39:29;;;;;;;2.65;2.05;;;;;;;;;;10381285;28;20061;-62
2023/04/02 06:44:35;;;;;;;5.70;2.40;;;;;;;;;;10386320;28;20081;-62
2023/04/02 06:49:50;;;;;;;5.13;2.40;;;;;;;;;;10403957;28;20037;-62
2023/04/02 06:54:51;;;;;;;4.72;1.98;;;;;;;;;;10380872;28;20046;-62
2023/04/02 06:59:51;;;;;;;9.43;4.15;;;;;;;;;;10374920;28;20501;-62
2023/04/02 07:05:02;;;;;;;5.82;2.20;;;;;;;;;;10377814;28;20477;-62
2023/04/02 07:10:02;;;;;;;2.33;2.10;;;;;;;;;;10383847;28;20590;-62
2023/04/02 07:15:04;;;;;;;4.95;2.50;;;;;;;;;;10377012;28;20335;-61
2023/04/02 07:20:05;;;;;;;2.90;2.05;;;;;;;;;;10387662;28;20667;-60
2023/04/02 07:25:06;;;;;;;3.95;2.08;;;;;;;;;;10384118;28;20040;-60
2023/04/02 07:30:07;;;;;;;3.75;2.42;;;;;;;;;;10379808;28;20034;-63
2023/04/02 07:35:09;;;;;;;5.13;2.38;;;;;;;;;;10365801;28;20415;-62
2023/04/02 07:40:20;;;;;;;5.03;2.33;;;;;;;;;;10366370;28;20045;-62
2023/04/02 07:45:21;;;;;;;6.30;2.50;;;;;;;;;;10381388;28;20077;-62
2023/04/02 07:50:22;;;;;;;5.25;2.70;;;;;;;;;;10376937;28;20084;-62
2023/04/02 07:55:22;;;;;;;4.57;2.70;;;;;;;;;;10368253;28;20046;-62
2023/04/02 08:00:25;;;;;;;5.93;3.38;;;;;;;;;;10377875;28;20041;-61
2023/04/02 08:05:26;;;;;;;6.55;2.90;;;;;;;;;;10368830;28;20393;-62
2023/04/02 08:10:27;;;;;;;19.90;2.85;;;;;;;;;;10367802;28;20029;-62
2023/04/02 08:15:27;;;;;;;5.47;3.15;;;;;;;;;;10366705;28;20497;-62
2023/04/02 08:20:28;;;;;;;10.80;3.05;;;;;;;;;;10367457;28;20069;-62
2023/04/02 08:25:28;;;;;;;13.57;3.35;;;;;;;;;;10367569;28;20032;-62
2023/04/02 08:30:29;;;;;;;3.50;2.88;;;;;;;;;;10367881;28;20553;-62
2023/04/02 08:35:30;;;;;;;10.27;2.85;;;;;;;;;;10368314;28;20084;-59
2023/04/02 08:40:37;;;;;;;9.82;3.40;;;;;;;;;;10366291;28;20061;-59
2023/04/02 08:46:14;;;;;;;14.90;3.00;;;;;;;;;;10376589;28;20374;-60
2023/04/02 08:51:35;;;;;;;4.53;2.90;;;;;;;;;;10390228;28;20071;-59
2023/04/02 08:56:42;;;;;;;11.13;2.90;;;;;;;;;;10364042;28;20061;-60
2023/04/02 09:02:12;;;;;;;10.68;2.50;;;;;;;;;;10390513;28;20396;-60
2023/04/02 09:07:15;;;;;;;4.75;2.55;;;;;;;;;;10391653;28;20026;-62
2023/04/02 09:12:27;;;;;;;7.68;2.85;;;;;;;;;;10366514;28;20022;-61
2023/04/02 09:17:30;;;;;;;6.72;2.60;;;;;;;;;;10378309;28;20030;-60
2023/04/02 09:22:32;;;;;;;12.07;2.90;;;;;;;;;;10392358;28;20128;-60
2023/04/02 09:27:35;;;;;;;4.53;3.03;;;;;;;;;;10389465;28;20416;-59
2023/04/02 09:33:06;;;;;;;5.82;2.50;;;;;;;;;;10400969;28;20122;-60
2023/04/02 09:38:10;;;;;;;7.28;2.65;;;;;;;;;;10365475;28;20280;-60
2023/04/02 09:43:16;;;;;;;8.40;3.05;;;;;;;;;;10392145;28;20025;-60
2023/04/02 09:48:26;;;;;;;6.47;2.50;;;;;;;;;;10372421;28;20485;-60
2023/04/02 09:53:38;;;;;;;5.25;2.47;;;;;;;;;;10412672;28;20034;-61
2023/04/02 09:58:42;;;;;;;7.65;2.65;;;;;;;;;;10373761;28;20034;-60
2023/04/02 10:03:43;;;;;;;4.63;3.03;;;;;;;;;;10400882;28;20037;-60
2023/04/02 10:08:45;;;;;;;7.50;2.60;;;;;;;;;;10394893;28;20026;-59
2023/04/02 10:13:57;;;;;;;6.60;2.35;;;;;;;;;;10369272;28;20033;-60
2023/04/02 10:19:21;;;;;;;4.95;2.90;;;;;;;;;;10405253;28;20036;-60
2023/04/02 10:24:26;;;;;;;6.57;2.90;;;;;;;;;;10390516;28;20080;-60
2023/04/02 10:29:48;;;;;;;3.70;2.50;;;;;;;;;;10372309;28;20033;-60
2023/04/02 10:35:10;;;;;;;8.98;2.45;;;;;;;;;;10358387;28;20048;-60
2023/04/02 10:40:59;;;;;;;7.82;2.53;;;;;;;;;;10349330;28;20061;-60
2023/04/02 10:46:22;;;;;;;7.00;3.42;;;;;;;;;;10218906;29;20047;-62
2023/04/02 10:51:37;;;;;;;6.88;2.55;;;;;;;;;;10183250;29;20407;-62
2023/04/02 10:56:39;;;;;;;10.50;2.15;;;;;;;;;;10205421;29;20058;-62
2023/04/02 11:01:41;;;;;;;8.82;2.28;;;;;;;;;;10230794;29;20415;-62
2023/04/02 11:06:55;;;;;;;8.18;2.47;;;;;;;;;;10210452;29;20039;-62
2023/04/02 11:11:58;;;;;;;18.73;3.55;;;;;;;;;;10210500;29;20034;-62
2023/04/02 11:17:02;;;;;;;16.38;3.40;;;;;;;;;;10336551;28;20112;-62
2023/04/02 11:22:17;;;;;;;10.40;4.32;;;;;;;;;;10375128;28;20588;-61
2023/04/02 11:27:34;;;;;;;9.52;3.05;;;;;;;;;;10357932;28;20049;-63
2023/04/02 11:32:41;;;;;;;6.80;2.70;;;;;;;;;;10356104;28;20079;-60
2023/04/02 11:37:44;;;;;;;7.97;2.80;;;;;;;;;;10358746;28;20057;-63
2023/04/02 11:42:49;;;;;;;5.40;2.38;;;;;;;;;;10360496;28;20478;-63
2023/04/02 11:48:07;;;;;;;9.43;3.10;;;;;;;;;;10354488;28;20041;-62
2023/04/02 11:53:13;;;;;;;5.20;2.50;;;;;;;;;;10357571;28;20138;-63
2023/04/02 11:58:35;;;;;;;11.10;2.67;;;;;;;;;;10356272;28;20064;-63
2023/04/02 12:03:45;;;;;;;8.30;3.15;;;;;;;;;;10358584;28;20030;-63
2023/04/02 12:09:26;;;;;;;10.50;2.60;;;;;;;;;;10376258;28;20537;-60
2023/04/02 12:14:42;;;;;;;7.10;2.22;;;;;;;;;;10358743;28;20030;-60
2023/04/02 12:19:54;;;;;;;4.70;2.85;;;;;;;;;;10352989;28;20029;-61
2023/04/02 12:25:02;;;;;;;5.70;2.28;;;;;;;;;;10372551;28;20791;-62
2023/04/02 12:30:18;;;;;;;3.97;2.07;;;;;;;;;;10346495;28;20049;-61
2023/04/02 12:35:31;;;;;;;5.10;2.13;;;;;;;;;;10362233;28;20084;-63
2023/04/02 12:40:31;;;;;;;7.30;2.17;;;;;;;;;;10366038;28;20053;-62
2023/04/02 12:45:33;;;;;;;5.85;1.98;;;;;;;;;;10363988;28;20051;-63
2023/04/02 12:50:34;;;;;;;4.00;1.90;;;;;;;;;;10348009;28;20026;-62
2023/04/02 12:55:35;;;;;;;7.75;2.50;;;;;;;;;;10365967;28;20405;-62
2023/04/02 13:00:35;;;;;;;12.25;2.72;;;;;;;;;;10365526;28;20030;-63
2023/04/02 13:06:02;;;;;;;7.88;2.55;;;;;;;;;;10364355;28;20069;-62
2023/04/02 13:11:04;;;;;;;6.93;2.58;;;;;;;;;;10353126;28;20046;-63
2023/04/02 13:16:27;;;;;;;8.43;2.70;;;;;;;;;;10365164;28;20095;-60
2023/04/02 13:21:29;;;;;;;9.10;2.28;;;;;;;;;;10366117;28;20038;-60
2023/04/02 13:26:30;;;;;;;7.35;2.90;;;;;;;;;;10366517;28;20363;-60
2023/04/02 13:31:32;;;;;;;6.15;2.13;;;;;;;;;;10366740;28;20018;-60
2023/04/02 13:36:32;;;;;;;5.32;2.40;;;;;;;;;;10377996;28;20139;-60
2023/04/02 13:41:45;;;;;;;5.00;1.80;;;;;;;;;;10387163;28;20029;-60
2023/04/02 13:46:46;;;;;;;6.13;2.33;;;;;;;;;;10368226;28;20253;-61
2023/04/02 13:51:51;;;;;;;3.50;2.00;;;;;;;;;;10366097;28;20084;-60
2023/04/02 13:56:51;;;;;;;2.95;1.90;;;;;;;;;;10378576;28;20042;-61
2023/04/02 14:01:58;;;;;;;5.88;1.90;;;;;;;;;;10364647;28;20026;-62
2023/04/02 14:07:20;;;;;;;2.80;2.05;;;;;;;;;;10379109;28;20030;-63
2023/04/02 14:12:59;;;;;;;5.35;2.00;;;;;;;;;;10365215;28;20117;-62
2023/04/02 14:18:25;;;;;;;4.70;1.90;;;;;;;;;;10355103;28;20048;-62
2023/04/02 14:23:43;;;;;;;3.47;1.50;;;;;;;;;;10387792;28;20032;-63
2023/04/02 14:28:56;;;;;;;;;;;;;;;;;;10405911;28;20168;-60
2023/04/02 14:34:17;;;;;;;4.38;1.98;;;;;;;;;;10387647;28;19917;-63
2023/04/02 14:39:40;;;;;;;2.42;1.65;;;;;;;;;;10385246;28;20034;-62
2023/04/02 14:44:57;;;;;;;4.35;1.73;;;;;;;;;;10383484;28;20036;-62
2023/04/02 14:50:10;;;;;;;1.55;1.38;;;;;;;;;;10383495;28;20038;-63
2023/04/02 14:55:24;;;;;;;3.70;1.65;;;;;;;;;;10324577;23;20074;-54
2023/04/02 15:00:40;;;;;;;3.42;1.60;;;;;;;;;;10284938;28;20031;-52
2023/04/02 15:05:50;;;;;;;2.78;1.60;;;;;;;;;;10297736;28;20386;-54
2023/04/02 15:11:41;;;;;;;3.50;1.60;;;;;;;;;;10313661;28;20018;-52
2023/04/02 15:16:43;;;;;;;2.83;1.95;;;;;;;;;;10202086;29;20051;-54
2023/04/02 15:22:19;;;;;;;2.95;1.50;;;;;;;;;;10201188;29;20090;-55
2023/04/02 15:27:55;;;;;;;1.95;1.70;;;;;;;;;;10182478;29;20091;-52
2023/04/02 15:33:21;;;;;;;2.10;1.73;;;;;;;;;;10196279;29;20463;-52
2023/04/02 15:38:32;;;;;;;3.75;1.50;;;;;;;;;;10202097;29;20036;-54
2023/04/02 15:44:17;;;;;;;1.88;1.50;;;;;;;;;;10200271;29;20063;-53
2023/04/02 15:49:36;;;;;;;2.05;1.50;;;;;;;;;;10292242;28;20410;-52
2023/04/02 15:55:11;;;;;;;2.40;1.80;;;;;;;;;;10308897;28;20376;-52
2023/04/02 16:00:30;;;;;;;2.85;1.80;;;;;;;;;;10291726;28;20105;-53
2023/04/02 16:05:56;;;;;;;1.75;1.35;;;;;;;;;;10291273;28;20112;-55
2023/04/02 16:10:57;;;;;;;4.47;2.08;;;;;;;;;;10297541;28;20031;-54
2023/04/02 16:16:04;;;;;;;1.75;1.65;;;;;;;;;;10320168;28;20038;-53
2023/04/02 16:21:06;;;;;;;2.40;1.60;;;;;;;;;;10293270;28;20034;-57
2023/04/02 16:26:21;;;;;;;2.72;2.17;;;;;;;;;;10308411;28;20117;-51
2023/04/02 16:31:53;;;;;;;2.85;1.67;;;;;;;;;;10311193;28;20398;-54
2023/04/02 16:37:55;;;;;;;2.90;1.50;;;;;;;;;;10308713;28;20026;-52
2023/04/02 16:43:21;;;;;;;5.03;1.70;;;;;;;;;;10261071;28;20367;-60
2023/04/02 16:48:52;;;;;;;2.00;1.52;;;;;;;;;;10310750;28;20026;-59
2023/04/02 16:54:12;;;;;;;5.38;1.70;;;;;;;;;;10299437;28;20041;-59
2023/04/02 16:59:29;;;;;;;4.30;1.60;;;;;;;;;;10316651;28;20029;-59
2023/04/02 17:04:48;;;;;;;2.72;1.45;;;;;;;;;;10304902;28;20038;-59
2023/04/02 17:09:51;;;;;;;3.28;1.70;;;;;;;;;;10309627;28;20035;-59
2023/04/02 17:15:00;;;;;;;2.35;1.33;;;;;;;;;;10302934;28;20035;-59
2023/04/02 17:20:01;;;;;;;3.05;1.70;;;;;;;;;;10287524;28;20387;-59
2023/04/02 17:25:03;;;;;;;3.63;1.70;;;;;;;;;;10315218;28;20027;-60
2023/04/02 17:30:22;;;;;;;2.08;1.70;;;;;;;;;;10319414;28;20065;-59
2023/04/02 17:35:31;;;;;;;;;;;;;;;;;;10295967;28;20062;-58
2023/04/02 17:40:50;;;;;;;3.33;1.77;;;;;;;;;;10335074;28;19917;-59
2023/04/02 17:46:00;;;;;;;2.45;1.70;;;;;;;;;;10322561;28;20030;-58
2023/04/02 17:51:08;;;;;;;1.80;1.70;;;;;;;;;;10314453;28;20367;-69
2023/04/02 17:56:47;;;;;;;4.15;2.28;;;;;;;;;;10293476;28;20406;-58
2023/04/02 18:02:40;;;;;;;5.93;2.40;;;;;;;;;;10315431;28;20042;-59
2023/04/02 18:08:02;;;;;;;7.55;2.30;;;;;;;;;;10324616;28;20026;-58
2023/04/02 18:13:17;;;;;;;5.30;1.65;;;;;;;;;;10308687;28;20038;-57
2023/04/02 18:18:51;;;;;;;4.65;1.70;;;;;;;;;;10318488;28;20108;-57
2023/04/02 18:23:59;;;;;;;4.78;1.60;;;;;;;;;;10307698;28;20376;-57
2023/04/02 18:29:36;;;;;;;3.80;1.77;;;;;;;;;;10313450;28;20062;-57
2023/04/02 18:34:52;;;;;;;2.95;2.00;;;;;;;;;;10318285;28;20142;-55
2023/04/02 18:40:39;;;;;;;2.50;1.75;;;;;;;;;;10314015;28;20030;-54
2023/04/02 18:46:38;;;;;;;3.63;1.80;;;;;;;;;;10272613;28;20070;-53
2023/04/02 18:51:39;;;;;;;5.30;2.00;;;;;;;;;;10302180;28;20042;-53
2023/04/02 18:56:41;;;;;;;5.95;1.80;;;;;;;;;;10315191;28;20035;-57
2023/04/02 19:01:48;;;;;;;1.85;1.70;;;;;;;;;;10314003;28;20117;-58
2023/04/02 19:06:58;;;;;;;2.45;1.67;;;;;;;;;;10300656;28;20506;-58
2023/04/02 19:12:00;;;;;;;5.35;2.28;;;;;;;;;;10295410;28;20030;-56
2023/04/02 19:17:28;;;;;;;7.22;2.13;;;;;;;;;;10303222;28;20058;-56
2023/04/02 19:22:47;;;;;;;8.93;2.10;;;;;;;;;;10297605;28;20117;-58
2023/04/02 19:28:11;;;;;;;13.95;3.03;;;;;;;;;;10315619;28;20081;-55
2023/04/02 19:33:35;;;;;;;15.32;3.05;;;;;;;;;;10311986;28;20069;-58
2023/04/02 19:38:53;;;;;;;10.20;2.50;;;;;;;;;;10301002;28;20392;-59
2023/04/02 19:43:54;;;;;;;6.50;2.42;;;;;;;;;;10300418;28;20070;-58
2023/04/02 19:49:09;;;;;;;4.70;1.85;;;;;;;;;;10303345;28;20034;-60
2023/04/02 19:54:10;;;;;;;6.03;2.25;;;;;;;;;;10293913;28;20090;-58
2023/04/02 19:59:10;;;;;;;11.50;2.53;;;;;;;;;;10301858;28;20470;-57
2023/04/02 20:04:12;;;;;;;13.30;3.50;;;;;;;;;;10309099;28;20069;-56
2023/04/02 20:09:12;;;;;;;11.98;2.85;;;;;;;;;;10307557;28;20121;-55
2023/04/02 20:14:13;;;;;;;9.18;2.95;;;;;;;;;;10305287;28;20202;-56
2023/04/02 20:19:13;;;;;;;7.55;3.38;;;;;;;;;;10306008;28;20035;-57
2023/04/02 20:24:14;;;;;;;13.23;2.95;;;;;;;;;;10322713;28;20482;-50
2023/04/02 20:29:15;;;;;;;10.18;2.80;;;;;;;;;;10305743;28;20483;-54
2023/04/02 20:34:15;;;;;;;12.52;3.20;;;;;;;;;;10310944;28;20445;-53
2023/04/02 20:39:19;;;;;;;11.18;3.47;;;;;;;;;;10320476;28;20089;-53
2023/04/02 20:44:20;;;;;;;8.18;2.65;;;;;;;;;;10315273;28;20471;-54
2023/04/02 20:49:20;;;;;;;6.65;2.47;;;;;;;;;;10304944;28;20038;-62
2023/04/02 20:54:21;;;;;;;5.75;2.83;;;;;;;;;;10305650;28;20035;-55
2023/04/02 20:59:22;;;;;;;11.45;2.90;;;;;;;;;;10310433;28;20035;-51
2023/04/02 21:04:22;;;;;;;11.50;3.15;;;;;;;;;;10305602;28;20482;-55
2023/04/02 21:09:23;;;;;;;12.73;2.83;;;;;;;;;;10300495;28;20405;-58
2023/04/02 21:14:23;;;;;;;9.68;2.42;;;;;;;;;;10300821;28;20077;-60
2023/04/02 21:19:24;;;;;;;11.23;2.47;;;;;;;;;;10286079;28;20050;-61
2023/04/02 21:24:24;;;;;;;11.00;2.70;;;;;;;;;;10313807;28;20038;-60
2023/04/02 21:29:25;;;;;;;9.75;3.03;;;;;;;;;;10322152;28;20491;-60
2023/04/02 21:34:26;;;;;;;11.25;3.33;;;;;;;;;;10325520;28;20033;-57
2023/04/02 21:39:26;;;;;;;8.35;2.50;;;;;;;;;;10329735;28;20053;-55
2023/04/02 21:44:27;;;;;;;12.45;2.53;;;;;;;;;;10320027;28;20104;-56
2023/04/02 21:49:28;;;;;;;14.10;2.83;;;;;;;;;;10314881;28;20399;-53
2023/04/02 21:54:29;;;;;;;7.70;2.53;;;;;;;;;;10317222;28;20054;-55
2023/04/02 21:59:29;;;;;;;10.73;2.70;;;;;;;;;;10319979;28;20023;-50
2023/04/02 22:04:32;;;;;;;22.20;3.40;;;;;;;;;;10323094;28;20030;-49
2023/04/02 22:09:32;;;;;;;6.03;2.53;;;;;;;;;;10308789;28;20105;-49
2023/04/02 22:14:33;;;;;;;7.18;2.60;;;;;;;;;;10310683;28;20030;-49
2023/04/02 22:19:34;;;;;;;8.18;2.50;;;;;;;;;;10296782;28;20402;-48
2023/04/02 22:24:35;;;;;;;6.13;2.28;;;;;;;;;;10297198;28;20027;-48
2023/04/02 22:29:35;;;;;;;4.20;2.40;;;;;;;;;;10296004;28;20385;-48
2023/04/02 22:34:38;;;;;;;6.43;2.28;;;;;;;;;;10301274;28;20031;-48
2023/04/02 22:39:38;;;;;;;5.55;2.22;;;;;;;;;;10321270;28;20544;-48
2023/04/02 22:44:39;;;;;;;7.13;2.03;;;;;;;;;;10287681;28;20191;-50
2023/04/02 22:49:39;;;;;;;4.13;2.35;;;;;;;;;;10307731;28;20073;-49
2023/04/02 22:54:40;;;;;;;4.50;1.90;;;;;;;;;;10308054;28;20042;-48
2023/04/02 22:59:41;;;;;;;6.80;2.42;;;;;;;;;;10294713;28;20082;-50
2023/04/02 23:04:41;;;;;;;4.05;2.00;;;;;;;;;;10305871;28;20030;-49
2023/04/02 23:09:42;;;;;;;4.70;2.38;;;;;;;;;;10301991;28;20023;-49
2023/04/02 23:14:42;;;;;;;7.68;2.33;;;;;;;;;;10294213;28;20018;-48
2023/04/02 23:19:43;;;;;;;5.25;2.17;;;;;;;;;;10293755;28;20030;-49
2023/04/02 23:24:43;;;;;;;6.00;2.30;;;;;;;;;;10294401;28;20062;-51
2023/04/02 23:29:44;;;;;;;5.90;2.58;;;;;;;;;;10294744;28;20038;-50
2023/04/02 23:34:45;;;;;;;6.93;2.60;;;;;;;;;;10312826;28;20038;-49
2023/04/02 23:39:45;;;;;;;5.25;2.42;;;;;;;;;;10307972;28;20037;-50
2023/04/02 23:44:46;;;;;;;4.93;2.53;;;;;;;;;;10310554;28;20548;-49
2023/04/02 23:49:46;;;;;;;4.80;2.53;;;;;;;;;;10305529;28;20034;-48
2023/04/02 23:54:47;;;;;;;4.82;2.28;;;;;;;;;;10294606;28;20043;-49
2023/04/02 23:59:48;;;;;;;6.03;2.58;;;;;;;;;;10305127;28;20022;-52
